createdAt,value
2018-08-06T00:03:57.496Z,84.10
2018-08-06T00:06:43.300Z,84.80
2018-08-06T00:09:13.895Z,84.10
2018-08-06T00:14:14.458Z,84.00
2018-08-06T00:16:45.066Z,84.80
2018-08-06T00:21:46.447Z,84.90
2018-08-06T00:24:17.291Z,85.40
2018-08-06T00:26:48.046Z,85.20
2018-08-06T00:29:18.265Z,85.20
2018-08-06T00:31:48.602Z,85.00
2018-08-06T00:34:18.722Z,85.20
2018-08-06T00:41:48.744Z,85.10
2018-08-06T00:44:18.873Z,85.10
2018-08-06T00:46:49.050Z,85.80
2018-08-06T00:49:19.238Z,85.70
2018-08-06T00:54:19.136Z,86.90
2018-08-06T01:01:49.319Z,88.90
2018-08-06T01:04:19.380Z,89.70
2018-08-06T01:09:19.242Z,90.10
2018-08-06T01:14:19.108Z,91.00
2018-08-06T01:16:49.247Z,91.50
2018-08-06T01:19:19.530Z,91.70
2018-08-06T01:21:49.876Z,92.60
2018-08-06T01:24:19.914Z,92.80
2018-08-06T01:29:19.692Z,93.00
2018-08-06T01:31:49.914Z,94.00
2018-08-06T01:34:19.957Z,94.20
2018-08-06T01:36:50.028Z,94.90
2018-08-06T01:39:20.003Z,95.60
2018-08-06T01:41:50.199Z,95.90
2018-08-06T01:44:20.226Z,96.20
2018-08-06T01:46:50.338Z,96.80
2018-08-06T01:49:20.409Z,96.60
2018-08-06T01:51:50.583Z,97.00
2018-08-06T01:54:20.566Z,97.70
2018-08-06T01:56:50.586Z,97.20
2018-08-06T01:59:20.682Z,97.40
2018-08-06T02:01:50.858Z,97.20
2018-08-06T02:06:50.614Z,98.10
2018-08-06T02:09:20.631Z,97.50
2018-08-06T02:11:50.654Z,97.10
2018-08-06T02:14:20.645Z,97.10
2018-08-06T02:16:50.695Z,97.10
2018-08-06T02:19:20.942Z,96.90
2018-08-06T02:21:51.164Z,97.20
2018-08-06T02:24:21.231Z,97.20
2018-08-06T02:29:21.026Z,97.40
2018-08-06T02:31:51.123Z,97.10
2018-08-06T02:34:21.122Z,97.30
2018-08-06T02:36:51.202Z,97.50
2018-08-06T02:39:21.508Z,97.20
2018-08-06T02:41:51.542Z,97.40
2018-08-06T02:44:21.583Z,97.20
2018-08-06T02:46:51.750Z,97.50
2018-08-06T02:49:21.778Z,97.40
2018-08-06T02:51:51.807Z,97.60
2018-08-06T02:59:21.149Z,97.80
2018-08-06T03:01:51.299Z,97.80
2018-08-06T03:04:21.367Z,98.20
2018-08-06T03:06:51.371Z,98.20
2018-08-06T03:11:51.010Z,98.60
2018-08-06T03:14:21.088Z,98.50
2018-08-06T03:16:51.119Z,98.80
2018-08-06T03:19:21.106Z,98.90
2018-08-06T03:24:20.749Z,99.40
2018-08-06T03:26:50.811Z,99.30
2018-08-06T03:29:20.810Z,99.50
2018-08-06T03:31:51.083Z,99.70
2018-08-06T03:34:21.082Z,99.90
2018-08-06T03:36:51.084Z,99.90
2018-08-06T03:39:21.315Z,99.90
2018-08-06T03:44:21.093Z,99.90
2018-08-06T03:46:51.290Z,99.90
2018-08-06T03:49:21.294Z,99.90
2018-08-06T03:54:21.111Z,99.90
2018-08-06T03:56:51.130Z,99.90
2018-08-06T03:59:21.191Z,99.90
2018-08-06T04:01:51.178Z,99.90
2018-08-06T04:04:21.247Z,99.90
2018-08-06T04:06:51.384Z,99.90
2018-08-06T04:12:04.036Z,99.90
2018-08-06T04:14:37.645Z,99.90
2018-08-06T04:17:09.478Z,99.90
2018-08-06T04:19:40.777Z,99.90
2018-08-06T04:22:11.607Z,99.90
2018-08-06T04:24:42.400Z,99.90
2018-08-06T04:27:13.181Z,99.90
2018-08-06T04:29:45.193Z,99.90
2018-08-06T04:32:15.691Z,99.90
2018-08-06T04:37:16.450Z,99.90
2018-08-06T04:39:48.398Z,99.90
2018-08-06T04:44:48.207Z,99.90
2018-08-06T04:47:18.323Z,99.90
2018-08-06T04:54:51.415Z,99.90
2018-08-06T04:57:21.426Z,99.90
2018-08-06T04:59:51.438Z,99.90
2018-08-06T05:04:51.063Z,99.90
2018-08-06T05:07:21.068Z,99.90
2018-08-06T05:12:21.238Z,99.90
2018-08-06T05:17:20.894Z,99.90
2018-08-06T05:19:50.914Z,99.90
2018-08-06T05:24:50.642Z,99.90
2018-08-06T05:27:21.198Z,99.90
2018-08-06T05:29:51.434Z,99.90
2018-08-06T05:32:21.476Z,99.90
2018-08-06T05:34:51.473Z,99.90
2018-08-06T05:37:21.510Z,99.90
2018-08-06T05:39:52.663Z,99.90
2018-08-06T05:44:52.376Z,99.90
2018-08-06T05:47:22.386Z,99.90
2018-08-06T05:49:52.397Z,99.90
2018-08-06T05:52:22.415Z,99.90
2018-08-06T05:57:22.241Z,99.90
2018-08-06T05:59:52.259Z,99.90
2018-08-06T06:02:22.283Z,99.90
2018-08-06T06:07:21.959Z,99.90
2018-08-06T06:09:52.570Z,99.90
2018-08-06T06:12:22.594Z,99.90
2018-08-06T06:14:52.570Z,99.90
2018-08-06T06:17:22.602Z,99.90
2018-08-06T06:19:52.691Z,99.90
2018-08-06T06:24:52.582Z,99.90
2018-08-06T06:27:22.595Z,99.90
2018-08-06T06:29:52.649Z,99.90
2018-08-06T06:32:22.763Z,99.90
2018-08-06T06:34:52.775Z,99.90
2018-08-06T06:37:22.762Z,99.90
2018-08-06T06:39:52.942Z,99.90
2018-08-06T06:42:22.979Z,99.90
2018-08-06T06:44:57.316Z,99.90
2018-08-06T06:47:27.351Z,99.90
2018-08-06T06:49:57.343Z,99.90
2018-08-06T06:54:57.244Z,99.90
2018-08-06T07:02:26.591Z,99.30
2018-08-06T07:04:56.578Z,99.20
2018-08-06T07:12:25.903Z,96.80
2018-08-06T07:14:55.902Z,97.40
2018-08-06T07:17:25.974Z,95.10
2018-08-06T07:19:56.230Z,93.90
2018-08-06T07:22:26.290Z,94.30
2018-08-06T07:27:26.139Z,92.10
2018-08-06T07:29:56.153Z,91.10
2018-08-06T07:32:26.187Z,89.60
2018-08-06T07:34:56.230Z,86.20
2018-08-06T07:37:27.320Z,82.90
2018-08-06T07:39:57.327Z,80.20
2018-08-06T07:42:27.395Z,79.40
2018-08-06T07:44:57.406Z,77.70
2018-08-06T07:47:27.411Z,73.40
2018-08-06T07:49:57.471Z,72.60
2018-08-06T07:52:27.494Z,72.80
2018-08-06T07:54:57.535Z,72.00
2018-08-06T07:57:27.534Z,72.30
2018-08-06T07:59:57.541Z,72.30
2018-08-06T08:02:27.591Z,71.30
2018-08-06T08:04:57.590Z,70.90
2018-08-06T08:07:27.617Z,71.00
2018-08-06T08:09:57.610Z,72.00
2018-08-06T08:12:27.679Z,72.60
2018-08-06T08:14:57.818Z,73.50
2018-08-06T08:17:27.818Z,75.10
2018-08-06T08:19:57.921Z,74.60
2018-08-06T08:22:27.990Z,73.80
2018-08-06T08:24:57.967Z,74.60
2018-08-06T08:27:27.975Z,73.60
2018-08-06T08:29:58.063Z,74.70
2018-08-06T08:34:57.719Z,72.90
2018-08-06T08:37:27.754Z,74.20
2018-08-06T08:39:57.759Z,73.00
2018-08-06T08:42:27.746Z,73.40
2018-08-06T08:44:57.798Z,72.30
2018-08-06T08:47:27.778Z,72.40
2018-08-06T08:49:57.785Z,69.90
2018-08-06T08:52:27.776Z,71.80
2018-08-06T08:54:58.106Z,71.00
2018-08-06T08:57:28.046Z,70.40
2018-08-06T08:59:58.051Z,70.00
2018-08-06T09:02:28.035Z,69.70
2018-08-06T09:04:58.158Z,69.70
2018-08-06T09:07:28.344Z,69.10
2018-08-06T09:09:58.222Z,67.00
2018-08-06T09:12:28.234Z,68.10
2018-08-06T09:14:58.238Z,67.40
2018-08-06T09:17:28.219Z,66.40
2018-08-06T09:19:58.227Z,67.10
2018-08-06T09:24:57.870Z,66.80
2018-08-06T09:27:27.907Z,66.90
2018-08-06T09:29:59.303Z,65.50
2018-08-06T09:32:29.285Z,65.60
2018-08-06T09:34:59.290Z,65.90
2018-08-06T09:37:29.327Z,63.60
2018-08-06T09:39:59.334Z,64.30
2018-08-06T09:42:29.338Z,63.60
2018-08-06T09:47:29.075Z,62.60
2018-08-06T09:49:59.083Z,63.80
2018-08-06T09:52:29.084Z,63.20
2018-08-06T09:54:59.099Z,62.00
2018-08-06T09:57:29.070Z,60.60
2018-08-06T09:59:59.158Z,61.50
2018-08-06T10:02:29.198Z,62.20
2018-08-06T10:04:59.253Z,60.50
2018-08-06T10:07:29.227Z,59.90
2018-08-06T10:09:59.249Z,60.10
2018-08-06T10:14:58.859Z,58.80
2018-08-06T10:17:28.863Z,57.30
2018-08-06T10:19:58.851Z,57.40
2018-08-06T10:22:28.843Z,56.50
2018-08-06T10:24:58.850Z,57.00
2018-08-06T10:27:28.868Z,57.10
2018-08-06T10:29:59.294Z,57.10
2018-08-06T10:32:29.320Z,57.10
2018-08-06T10:34:59.347Z,59.20
2018-08-06T10:39:59.096Z,56.50
2018-08-06T10:42:29.100Z,56.70
2018-08-06T10:44:59.122Z,56.60
2018-08-06T10:47:29.098Z,55.80
2018-08-06T10:49:59.110Z,56.00
2018-08-06T10:52:29.096Z,55.30
2018-08-06T10:54:59.147Z,54.80
2018-08-06T10:57:29.202Z,54.60
2018-08-06T10:59:59.195Z,54.30
2018-08-06T11:02:29.216Z,54.80
2018-08-06T11:04:59.372Z,53.10
2018-08-06T11:07:29.389Z,52.70
2018-08-06T11:09:59.427Z,54.20
2018-08-06T11:12:29.447Z,53.90
2018-08-06T11:14:59.455Z,54.30
2018-08-06T11:17:29.433Z,52.70
2018-08-06T11:19:59.467Z,53.40
2018-08-06T11:22:29.507Z,53.90
2018-08-06T11:24:59.520Z,53.90
2018-08-06T11:27:29.814Z,53.20
2018-08-06T11:30:00.319Z,53.70
2018-08-06T11:32:30.683Z,53.30
2018-08-06T11:35:00.776Z,52.10
2018-08-06T11:37:30.799Z,50.90
2018-08-06T11:40:00.818Z,52.00
2018-08-06T11:42:31.058Z,53.20
2018-08-06T11:45:01.463Z,52.70
2018-08-06T11:47:31.769Z,51.60
2018-08-06T11:50:04.982Z,52.80
2018-08-06T11:52:37.253Z,53.40
2018-08-06T11:55:10.645Z,52.50
2018-08-06T11:57:44.682Z,51.60
2018-08-06T12:00:19.184Z,51.30
2018-08-06T12:02:50.530Z,51.50
2018-08-06T12:05:20.738Z,53.10
2018-08-06T12:07:50.873Z,52.40
2018-08-06T12:10:20.970Z,53.40
2018-08-06T12:12:51.372Z,50.90
2018-08-06T12:15:21.801Z,51.00
2018-08-06T12:17:51.843Z,52.50
2018-08-06T12:20:22.104Z,51.80
2018-08-06T12:22:52.351Z,53.00
2018-08-06T12:25:22.379Z,51.10
2018-08-06T12:30:23.261Z,53.10
2018-08-06T12:32:54.168Z,53.80
2018-08-06T12:35:24.166Z,51.80
2018-08-06T12:37:54.171Z,52.70
2018-08-06T12:40:24.205Z,53.30
2018-08-06T12:42:54.294Z,51.30
2018-08-06T12:47:54.092Z,51.40
2018-08-06T12:50:24.082Z,52.20
2018-08-06T12:52:54.122Z,50.70
2018-08-06T12:55:24.151Z,50.50
2018-08-06T12:57:54.284Z,49.80
2018-08-06T13:00:25.710Z,49.90
2018-08-06T13:02:56.023Z,48.60
2018-08-06T13:05:26.182Z,48.70
2018-08-06T13:07:56.358Z,49.80
2018-08-06T13:10:26.366Z,49.80
2018-08-06T13:12:56.381Z,49.40
2018-08-06T13:17:56.397Z,48.40
2018-08-06T13:20:26.364Z,48.80
2018-08-06T13:22:56.374Z,47.50
2018-08-06T13:25:26.440Z,48.40
2018-08-06T13:30:26.497Z,49.70
2018-08-06T13:35:26.162Z,50.70
2018-08-06T13:37:56.207Z,49.10
2018-08-06T13:40:26.232Z,49.50
2018-08-06T13:42:56.215Z,50.20
2018-08-06T13:45:26.363Z,49.20
2018-08-06T13:47:56.422Z,49.00
2018-08-06T13:50:26.563Z,49.10
2018-08-06T13:52:56.632Z,49.30
2018-08-06T13:57:56.617Z,50.40
2018-08-06T14:00:26.651Z,49.20
2018-08-06T14:02:56.663Z,49.20
2018-08-06T14:05:26.747Z,49.50
2018-08-06T14:07:56.707Z,49.20
2018-08-06T14:10:26.722Z,48.10
2018-08-06T14:12:56.742Z,49.00
2018-08-06T14:15:26.734Z,48.60
2018-08-06T14:17:56.844Z,48.60
2018-08-06T14:20:26.975Z,48.70
2018-08-06T14:22:56.999Z,48.00
2018-08-06T14:25:27.014Z,47.80
2018-08-06T14:27:57.201Z,48.00
2018-08-06T14:30:27.257Z,48.80
2018-08-06T14:32:57.278Z,46.60
2018-08-06T14:35:27.286Z,47.10
2018-08-06T14:37:57.326Z,47.30
2018-08-06T14:40:27.328Z,48.30
2018-08-06T14:42:57.343Z,48.10
2018-08-06T14:47:57.233Z,48.00
2018-08-06T14:50:27.278Z,48.00
2018-08-06T14:52:57.289Z,47.60
2018-08-06T14:55:27.301Z,48.00
2018-08-06T14:57:57.639Z,48.10
2018-08-06T15:00:27.667Z,47.60
2018-08-06T15:02:57.686Z,46.20
2018-08-06T15:05:27.686Z,46.50
2018-08-06T15:07:57.838Z,46.30
2018-08-06T15:10:27.844Z,46.50
2018-08-06T15:12:57.963Z,48.20
2018-08-06T15:15:27.993Z,45.60
2018-08-06T15:17:58.152Z,46.80
2018-08-06T15:20:28.242Z,47.40
2018-08-06T15:22:58.289Z,45.20
2018-08-06T15:25:28.326Z,46.30
2018-08-06T15:27:58.491Z,46.30
2018-08-06T15:30:28.491Z,46.60
2018-08-06T15:35:28.214Z,45.90
2018-08-06T15:37:58.409Z,45.60
2018-08-06T15:40:28.414Z,45.20
2018-08-06T15:42:58.417Z,46.50
2018-08-06T15:45:28.471Z,45.10
2018-08-06T15:47:59.159Z,45.30
2018-08-06T15:50:29.199Z,46.10
2018-08-06T15:52:59.418Z,44.40
2018-08-06T15:55:29.474Z,45.30
2018-08-06T15:58:00.124Z,45.10
2018-08-06T16:00:30.357Z,43.90
2018-08-06T16:03:00.354Z,43.70
2018-08-06T16:05:30.618Z,45.20
2018-08-06T16:08:00.750Z,43.90
2018-08-06T16:10:30.730Z,44.60
2018-08-06T16:13:01.082Z,43.90
2018-08-06T16:15:31.094Z,44.20
2018-08-06T16:18:01.086Z,45.00
2018-08-06T16:20:31.082Z,45.40
2018-08-06T16:23:01.648Z,45.80
2018-08-06T16:25:31.722Z,46.20
2018-08-06T16:28:05.169Z,46.90
2018-08-06T16:30:38.983Z,45.90
2018-08-06T16:33:12.717Z,45.80
2018-08-06T16:35:42.945Z,45.40
2018-08-06T16:38:13.421Z,46.50
2018-08-06T16:40:44.120Z,47.10
2018-08-06T16:43:15.400Z,47.90
2018-08-06T16:45:46.502Z,48.50
2018-08-06T16:48:18.105Z,49.60
2018-08-06T16:50:49.187Z,50.00
2018-08-06T16:53:19.578Z,51.00
2018-08-06T16:55:50.091Z,51.40
2018-08-06T16:58:20.135Z,50.10
2018-08-06T17:00:50.198Z,47.30
2018-08-06T17:03:20.605Z,47.20
2018-08-06T17:08:20.347Z,44.40
2018-08-06T17:10:50.356Z,45.50
2018-08-06T17:13:20.482Z,45.40
2018-08-06T17:15:50.528Z,44.80
2018-08-06T17:18:20.558Z,44.80
2018-08-06T17:20:50.679Z,48.00
2018-08-06T17:23:21.250Z,48.80
2018-08-06T17:25:51.274Z,49.20
2018-08-06T17:28:21.705Z,50.10
2018-08-06T17:30:51.731Z,50.60
2018-08-06T17:33:21.958Z,51.20
2018-08-06T17:35:51.958Z,54.60
2018-08-06T17:38:22.027Z,56.80
2018-08-06T17:40:52.123Z,57.40
2018-08-06T17:43:22.147Z,58.60
2018-08-06T17:45:52.409Z,60.20
2018-08-06T17:48:22.555Z,60.90
2018-08-06T17:50:52.681Z,61.70
2018-08-06T17:53:22.715Z,62.10
2018-08-06T17:55:52.758Z,62.40
2018-08-06T17:58:22.765Z,64.90
2018-08-06T18:00:52.768Z,65.40
2018-08-06T18:03:22.756Z,66.80
2018-08-06T18:05:52.758Z,66.70
2018-08-06T18:08:22.750Z,67.20
2018-08-06T18:10:52.746Z,69.00
2018-08-06T18:13:22.746Z,70.30
2018-08-06T18:15:52.745Z,70.40
2018-08-06T18:18:22.731Z,71.70
2018-08-06T18:20:52.734Z,71.90
2018-08-06T18:23:22.714Z,72.50
2018-08-06T18:25:53.028Z,74.10
2018-08-06T18:28:23.025Z,74.50
2018-08-06T18:30:53.362Z,75.60
2018-08-06T18:33:23.378Z,76.70
2018-08-06T18:35:53.396Z,77.10
2018-08-06T18:38:23.394Z,78.60
2018-08-06T18:40:53.402Z,79.10
2018-08-06T18:43:23.387Z,80.40
2018-08-06T18:45:53.402Z,80.90
2018-08-06T18:48:23.755Z,81.60
2018-08-06T18:50:53.786Z,82.00
2018-08-06T18:53:23.850Z,84.20
2018-08-06T18:55:53.862Z,84.70
2018-08-06T18:58:23.990Z,85.80
2018-08-06T19:00:54.007Z,86.90
2018-08-06T19:03:23.980Z,87.60
2018-08-06T19:05:54.011Z,87.60
2018-08-06T19:08:24.282Z,87.80
2018-08-06T19:10:54.282Z,89.40
2018-08-06T19:13:29.522Z,89.70
2018-08-06T19:15:59.878Z,90.30
2018-08-06T19:18:35.154Z,91.10
2018-08-06T19:21:06.775Z,92.00
2018-08-06T19:26:11.573Z,93.00
2018-08-06T19:28:42.454Z,93.50
2018-08-06T19:33:49.147Z,94.70
2018-08-06T19:36:19.383Z,95.60
2018-08-06T19:38:49.466Z,96.20
2018-08-06T19:41:19.467Z,96.70
2018-08-06T19:43:49.694Z,96.80
2018-08-06T19:46:19.670Z,97.40
2018-08-06T19:48:50.168Z,97.70
2018-08-06T19:51:20.214Z,98.00
2018-08-06T19:53:50.208Z,98.20
2018-08-06T19:58:49.898Z,99.30
2018-08-06T20:01:19.937Z,99.60
2018-08-06T20:06:19.699Z,99.90
2018-08-06T20:08:49.826Z,99.90
2018-08-06T20:13:49.521Z,99.90
2018-08-06T20:16:19.519Z,99.90
2018-08-06T20:18:49.526Z,99.90
2018-08-06T20:21:19.502Z,99.90
2018-08-06T20:23:49.590Z,99.90
2018-08-06T20:26:19.655Z,99.90
2018-08-06T20:28:49.671Z,99.90
2018-08-06T20:31:19.713Z,99.90
2018-08-06T20:33:49.746Z,99.90
2018-08-06T20:36:19.759Z,99.90
2018-08-06T20:38:49.924Z,99.90
2018-08-06T20:41:19.973Z,99.90
2018-08-06T20:43:50.047Z,99.90
2018-08-06T20:46:20.039Z,99.90
2018-08-06T20:48:50.055Z,99.90
2018-08-06T20:51:20.083Z,99.90
2018-08-06T20:53:50.158Z,99.90
2018-08-06T20:56:20.137Z,99.90
2018-08-06T20:58:50.450Z,99.90
2018-08-06T21:01:20.522Z,99.90
2018-08-06T21:03:50.570Z,99.90
2018-08-06T21:08:50.450Z,99.90
2018-08-06T21:11:20.450Z,99.90
2018-08-06T21:13:50.548Z,99.90
2018-08-06T21:16:20.549Z,99.90
2018-08-06T21:18:50.590Z,99.90
2018-08-06T21:21:20.594Z,99.90
2018-08-06T21:23:50.805Z,99.90
2018-08-06T21:26:20.849Z,99.90
2018-08-06T21:28:50.954Z,99.90
2018-08-06T21:31:21.014Z,99.90
2018-08-06T21:33:51.154Z,99.90
2018-08-06T21:36:21.169Z,99.90
2018-08-06T21:38:51.323Z,99.90
2018-08-06T21:43:51.360Z,99.90
2018-08-06T21:46:21.364Z,99.90
2018-08-06T21:48:51.390Z,99.90
2018-08-06T21:51:21.422Z,99.90
2018-08-06T21:53:51.492Z,99.90
2018-08-06T21:56:21.502Z,99.90
2018-08-06T21:58:51.611Z,99.90
2018-08-06T22:01:21.672Z,99.90
2018-08-06T22:06:21.483Z,99.90
2018-08-06T22:08:51.539Z,99.90
2018-08-06T22:13:51.232Z,99.90
2018-08-06T22:16:21.262Z,99.90
2018-08-06T22:18:51.455Z,99.90
2018-08-06T22:21:21.476Z,99.90
2018-08-06T22:23:51.607Z,99.90
2018-08-06T22:26:22.078Z,99.90
2018-08-06T22:28:52.087Z,99.90
2018-08-06T22:31:22.239Z,99.90
2018-08-06T22:33:52.454Z,99.90
2018-08-06T22:36:22.452Z,99.90
2018-08-06T22:38:52.529Z,99.90
2018-08-06T22:41:23.240Z,99.90
2018-08-06T22:43:53.459Z,99.90
2018-08-06T22:46:23.795Z,99.90
2018-08-06T22:48:53.901Z,99.90
2018-08-06T22:51:24.363Z,99.90
2018-08-06T22:53:54.406Z,99.90
2018-08-06T22:56:24.722Z,99.90
2018-08-06T22:58:54.742Z,99.90
2018-08-06T23:01:24.730Z,99.90
2018-08-06T23:06:24.366Z,99.90
2018-08-06T23:08:54.464Z,99.90
2018-08-06T23:11:24.371Z,99.90
2018-08-06T23:13:54.455Z,99.90
2018-08-06T23:18:54.565Z,99.90
2018-08-06T23:21:24.534Z,99.90
2018-08-06T23:23:54.575Z,99.90
2018-08-06T23:26:24.533Z,99.90
2018-08-06T23:28:54.774Z,99.90
2018-08-06T23:31:24.969Z,99.90
2018-08-06T23:33:55.055Z,99.90
2018-08-06T23:36:25.222Z,99.90
2018-08-06T23:38:55.300Z,99.90
2018-08-06T23:41:26.498Z,99.90
2018-08-06T23:43:56.500Z,99.90
2018-08-06T23:46:26.481Z,99.90
2018-08-06T23:48:56.502Z,99.90
2018-08-06T23:51:26.500Z,99.90
2018-08-06T23:53:57.001Z,99.90
2018-08-06T23:56:27.026Z,99.90
2018-08-06T23:58:57.422Z,99.90
